sensor_id;sensor_type;location;lat;lon;timestamp;temperature;humidity
42479;DHT22;28110;47.080;9.476;2023-02-19T00:01:20;7.60;99.90
42479;DHT22;28110;47.080;9.476;2023-02-19T00:03:57;7.60;99.90
42479;DHT22;28110;47.080;9.476;2023-02-19T00:06:25;7.70;99.90
42479;DHT22;28110;47.080;9.476;2023-02-19T00:08:51;7.80;99.90
42479;DHT22;28110;47.080;9.476;2023-02-19T00:11:19;7.70;99.90
42479;DHT22;28110;47.080;9.476;2023-02-19T00:13:47;7.60;99.90
42479;DHT22;28110;47.080;9.476;2023-02-19T00:16:15;7.70;99.90
42479;DHT22;28110;47.080;9.476;2023-02-19T00:18:42;7.60;99.90
42479;DHT22;28110;47.080;9.476;2023-02-19T00:21:08;7.60;99.90
42479;DHT22;28110;47.080;9.476;2023-02-19T00:23:33;7.70;99.90
42479;DHT22;28110;47.080;9.476;2023-02-19T00:26:08;7.60;99.90
42479;DHT22;28110;47.080;9.476;2023-02-19T00:28:34;7.70;99.90
42479;DHT22;28110;47.080;9.476;2023-02-19T00:31:07;7.70;99.90
42479;DHT22;28110;47.080;9.476;2023-02-19T00:33:33;7.70;99.90
42479;DHT22;28110;47.080;9.476;2023-02-19T00:36:00;7.70;99.90
42479;DHT22;28110;47.080;9.476;2023-02-19T00:38:26;7.70;99.90
42479;DHT22;28110;47.080;9.476;2023-02-19T00:40:52;7.70;99.90
42479;DHT22;28110;47.080;9.476;2023-02-19T00:43:17;7.80;99.90
42479;DHT22;28110;47.080;9.476;2023-02-19T00:45:43;7.90;99.90
42479;DHT22;28110;47.080;9.476;2023-02-19T00:48:08;7.90;99.90
42479;DHT22;28110;47.080;9.476;2023-02-19T00:50:34;7.80;99.90
42479;DHT22;28110;47.080;9.476;2023-02-19T00:52:59;7.80;99.90
42479;DHT22;28110;47.080;9.476;2023-02-19T00:55:25;7.70;99.90
42479;DHT22;28110;47.080;9.476;2023-02-19T00:57:50;7.70;99.90
42479;DHT22;28110;47.080;9.476;2023-02-19T01:00:16;7.70;99.90
42479;DHT22;28110;47.080;9.476;2023-02-19T01:02:41;7.60;99.90
42479;DHT22;28110;47.080;9.476;2023-02-19T01:05:07;7.60;99.90
42479;DHT22;28110;47.080;9.476;2023-02-19T01:07:35;7.50;99.90
42479;DHT22;28110;47.080;9.476;2023-02-19T01:10:00;7.50;99.90
42479;DHT22;28110;47.080;9.476;2023-02-19T01:12:26;7.50;99.90
42479;DHT22;28110;47.080;9.476;2023-02-19T01:14:53;7.40;99.90
42479;DHT22;28110;47.080;9.476;2023-02-19T01:17:19;7.50;99.90
42479;DHT22;28110;47.080;9.476;2023-02-19T01:19:45;7.60;99.90
42479;DHT22;28110;47.080;9.476;2023-02-19T01:22:11;7.60;99.90
42479;DHT22;28110;47.080;9.476;2023-02-19T01:24:36;7.60;99.90
42479;DHT22;28110;47.080;9.476;2023-02-19T01:27:02;7.60;99.90
42479;DHT22;28110;47.080;9.476;2023-02-19T01:29:27;7.70;99.90
42479;DHT22;28110;47.080;9.476;2023-02-19T01:31:53;7.70;99.90
42479;DHT22;28110;47.080;9.476;2023-02-19T01:34:18;7.70;99.90
42479;DHT22;28110;47.080;9.476;2023-02-19T01:36:44;7.70;99.90
42479;DHT22;28110;47.080;9.476;2023-02-19T01:39:10;7.70;99.90
42479;DHT22;28110;47.080;9.476;2023-02-19T01:41:37;7.70;99.90
42479;DHT22;28110;47.080;9.476;2023-02-19T01:46:44;7.70;99.90
42479;DHT22;28110;47.080;9.476;2023-02-19T01:49:28;7.60;99.90
42479;DHT22;28110;47.080;9.476;2023-02-19T01:51:59;7.60;99.90
42479;DHT22;28110;47.080;9.476;2023-02-19T01:54:31;7.50;99.90
42479;DHT22;28110;47.080;9.476;2023-02-19T01:56:58;7.60;99.90
42479;DHT22;28110;47.080;9.476;2023-02-19T01:59:24;7.60;99.90
42479;DHT22;28110;47.080;9.476;2023-02-19T02:01:50;7.60;99.90
42479;DHT22;28110;47.080;9.476;2023-02-19T02:04:16;7.60;99.90
42479;DHT22;28110;47.080;9.476;2023-02-19T02:09:15;7.50;99.90
42479;DHT22;28110;47.080;9.476;2023-02-19T02:11:59;7.60;99.90
42479;DHT22;28110;47.080;9.476;2023-02-19T02:14:28;7.60;99.90
42479;DHT22;28110;47.080;9.476;2023-02-19T02:17:08;7.60;99.90
42479;DHT22;28110;47.080;9.476;2023-02-19T02:19:55;7.50;99.90
42479;DHT22;28110;47.080;9.476;2023-02-19T02:22:34;7.50;99.90
42479;DHT22;28110;47.080;9.476;2023-02-19T02:30:49;7.40;99.90
42479;DHT22;28110;47.080;9.476;2023-02-19T02:36:16;7.30;99.90
42479;DHT22;28110;47.080;9.476;2023-02-19T02:38:45;7.30;99.90
42479;DHT22;28110;47.080;9.476;2023-02-19T02:41:12;7.30;99.90
42479;DHT22;28110;47.080;9.476;2023-02-19T02:43:38;7.30;99.90
42479;DHT22;28110;47.080;9.476;2023-02-19T02:46:03;7.30;99.90
42479;DHT22;28110;47.080;9.476;2023-02-19T02:48:33;7.30;99.90
42479;DHT22;28110;47.080;9.476;2023-02-19T02:51:22;7.30;99.90
42479;DHT22;28110;47.080;9.476;2023-02-19T02:53:54;7.40;99.90
42479;DHT22;28110;47.080;9.476;2023-02-19T02:56:40;7.40;99.90
42479;DHT22;28110;47.080;9.476;2023-02-19T02:59:09;7.30;99.90
42479;DHT22;28110;47.080;9.476;2023-02-19T03:01:43;7.30;99.90
42479;DHT22;28110;47.080;9.476;2023-02-19T03:07:38;7.20;99.90
42479;DHT22;28110;47.080;9.476;2023-02-19T03:10:07;7.10;99.90
42479;DHT22;28110;47.080;9.476;2023-02-19T03:12:34;7.10;99.90
42479;DHT22;28110;47.080;9.476;2023-02-19T03:15:27;7.10;99.90
42479;DHT22;28110;47.080;9.476;2023-02-19T03:18:33;7.10;99.90
42479;DHT22;28110;47.080;9.476;2023-02-19T03:21:20;7.10;99.90
42479;DHT22;28110;47.080;9.476;2023-02-19T03:23:47;7.10;99.90
42479;DHT22;28110;47.080;9.476;2023-02-19T03:26:32;7.10;99.90
42479;DHT22;28110;47.080;9.476;2023-02-19T03:28:59;7.00;99.90
42479;DHT22;28110;47.080;9.476;2023-02-19T03:31:45;7.10;99.90
42479;DHT22;28110;47.080;9.476;2023-02-19T03:34:16;7.00;99.90
42479;DHT22;28110;47.080;9.476;2023-02-19T03:36:59;7.10;99.90
42479;DHT22;28110;47.080;9.476;2023-02-19T03:39:26;7.10;99.90
42479;DHT22;28110;47.080;9.476;2023-02-19T03:41:57;7.10;99.90
42479;DHT22;28110;47.080;9.476;2023-02-19T03:44:40;7.00;99.90
42479;DHT22;28110;47.080;9.476;2023-02-19T03:49:55;6.90;99.90
42479;DHT22;28110;47.080;9.476;2023-02-19T03:55:17;6.90;99.90
42479;DHT22;28110;47.080;9.476;2023-02-19T03:57:59;7.00;99.90
42479;DHT22;28110;47.080;9.476;2023-02-19T04:00:29;7.10;99.90
42479;DHT22;28110;47.080;9.476;2023-02-19T04:03:01;7.10;99.90
42479;DHT22;28110;47.080;9.476;2023-02-19T04:05:35;7.20;99.90
42479;DHT22;28110;47.080;9.476;2023-02-19T04:08:16;7.10;99.90
42479;DHT22;28110;47.080;9.476;2023-02-19T04:10:44;7.20;99.90
42479;DHT22;28110;47.080;9.476;2023-02-19T04:13:21;7.10;99.90
42479;DHT22;28110;47.080;9.476;2023-02-19T04:15:49;7.10;99.90
42479;DHT22;28110;47.080;9.476;2023-02-19T04:18:23;7.10;99.90
42479;DHT22;28110;47.080;9.476;2023-02-19T04:20:49;7.00;99.90
42479;DHT22;28110;47.080;9.476;2023-02-19T04:23:18;7.00;99.90
42479;DHT22;28110;47.080;9.476;2023-02-19T04:25:47;6.90;99.90
42479;DHT22;28110;47.080;9.476;2023-02-19T04:28:14;6.90;99.90
42479;DHT22;28110;47.080;9.476;2023-02-19T04:30:41;6.90;99.90
42479;DHT22;28110;47.080;9.476;2023-02-19T04:33:07;6.90;99.90
42479;DHT22;28110;47.080;9.476;2023-02-19T04:35:33;6.80;99.90
42479;DHT22;28110;47.080;9.476;2023-02-19T04:37:58;6.80;99.90
42479;DHT22;28110;47.080;9.476;2023-02-19T04:40:24;6.70;99.90
42479;DHT22;28110;47.080;9.476;2023-02-19T04:42:49;6.70;99.90
42479;DHT22;28110;47.080;9.476;2023-02-19T04:45:15;6.80;99.90
42479;DHT22;28110;47.080;9.476;2023-02-19T04:47:41;6.70;99.90
42479;DHT22;28110;47.080;9.476;2023-02-19T04:50:06;6.70;99.90
42479;DHT22;28110;47.080;9.476;2023-02-19T04:52:32;6.70;99.90
42479;DHT22;28110;47.080;9.476;2023-02-19T04:54:58;6.70;99.90
42479;DHT22;28110;47.080;9.476;2023-02-19T04:57:23;6.80;99.90
42479;DHT22;28110;47.080;9.476;2023-02-19T04:59:49;6.80;99.90
42479;DHT22;28110;47.080;9.476;2023-02-19T05:02:14;6.80;99.90
42479;DHT22;28110;47.080;9.476;2023-02-19T05:04:40;6.80;99.90
42479;DHT22;28110;47.080;9.476;2023-02-19T05:07:07;6.80;99.90
42479;DHT22;28110;47.080;9.476;2023-02-19T05:09:32;6.80;99.90
42479;DHT22;28110;47.080;9.476;2023-02-19T05:11:58;6.80;99.90
42479;DHT22;28110;47.080;9.476;2023-02-19T05:14:23;6.80;99.90
42479;DHT22;28110;47.080;9.476;2023-02-19T05:16:49;6.70;99.90
42479;DHT22;28110;47.080;9.476;2023-02-19T05:19:14;6.70;99.90
42479;DHT22;28110;47.080;9.476;2023-02-19T05:21:40;6.80;99.90
42479;DHT22;28110;47.080;9.476;2023-02-19T05:24:06;6.70;99.90
42479;DHT22;28110;47.080;9.476;2023-02-19T05:26:32;6.80;99.90
42479;DHT22;28110;47.080;9.476;2023-02-19T05:28:58;6.70;99.90
42479;DHT22;28110;47.080;9.476;2023-02-19T05:31:24;6.80;99.90
42479;DHT22;28110;47.080;9.476;2023-02-19T05:33:49;6.90;99.90
42479;DHT22;28110;47.080;9.476;2023-02-19T05:36:18;7.00;99.90
42479;DHT22;28110;47.080;9.476;2023-02-19T05:38:44;7.10;99.90
42479;DHT22;28110;47.080;9.476;2023-02-19T05:41:21;7.20;99.90
42479;DHT22;28110;47.080;9.476;2023-02-19T05:43:47;7.20;99.90
42479;DHT22;28110;47.080;9.476;2023-02-19T05:46:15;7.20;99.90
42479;DHT22;28110;47.080;9.476;2023-02-19T05:48:41;7.30;99.90
42479;DHT22;28110;47.080;9.476;2023-02-19T05:51:12;7.30;99.90
42479;DHT22;28110;47.080;9.476;2023-02-19T05:53:38;7.40;99.90
42479;DHT22;28110;47.080;9.476;2023-02-19T05:58:51;7.40;99.90
42479;DHT22;28110;47.080;9.476;2023-02-19T06:01:18;7.30;99.90
42479;DHT22;28110;47.080;9.476;2023-02-19T06:03:44;7.20;99.90
42479;DHT22;28110;47.080;9.476;2023-02-19T06:06:13;7.10;99.90
42479;DHT22;28110;47.080;9.476;2023-02-19T06:08:39;7.00;99.90
42479;DHT22;28110;47.080;9.476;2023-02-19T06:11:04;6.90;99.90
42479;DHT22;28110;47.080;9.476;2023-02-19T06:13:30;6.90;99.90
42479;DHT22;28110;47.080;9.476;2023-02-19T06:15:56;6.80;99.90
42479;DHT22;28110;47.080;9.476;2023-02-19T06:18:21;6.80;99.90
42479;DHT22;28110;47.080;9.476;2023-02-19T06:20:47;6.80;99.90
42479;DHT22;28110;47.080;9.476;2023-02-19T06:23:12;6.60;99.90
42479;DHT22;28110;47.080;9.476;2023-02-19T06:25:38;6.60;99.90
42479;DHT22;28110;47.080;9.476;2023-02-19T06:28:04;6.50;99.90
42479;DHT22;28110;47.080;9.476;2023-02-19T06:30:30;6.50;99.90
42479;DHT22;28110;47.080;9.476;2023-02-19T06:32:55;6.60;99.90
42479;DHT22;28110;47.080;9.476;2023-02-19T06:35:21;6.50;99.90
42479;DHT22;28110;47.080;9.476;2023-02-19T06:37:47;6.50;99.90
42479;DHT22;28110;47.080;9.476;2023-02-19T06:40:14;6.50;99.90
42479;DHT22;28110;47.080;9.476;2023-02-19T06:42:39;6.50;99.90
42479;DHT22;28110;47.080;9.476;2023-02-19T06:45:05;6.50;99.90
42479;DHT22;28110;47.080;9.476;2023-02-19T06:47:32;6.50;99.90
42479;DHT22;28110;47.080;9.476;2023-02-19T06:49:58;6.60;99.90
42479;DHT22;28110;47.080;9.476;2023-02-19T06:52:24;6.60;99.90
42479;DHT22;28110;47.080;9.476;2023-02-19T06:54:49;6.60;99.90
42479;DHT22;28110;47.080;9.476;2023-02-19T06:57:15;6.60;99.90
42479;DHT22;28110;47.080;9.476;2023-02-19T06:59:40;6.60;99.90
42479;DHT22;28110;47.080;9.476;2023-02-19T07:02:06;6.70;99.90
42479;DHT22;28110;47.080;9.476;2023-02-19T07:04:34;6.70;99.90
42479;DHT22;28110;47.080;9.476;2023-02-19T07:06:59;6.60;99.90
42479;DHT22;28110;47.080;9.476;2023-02-19T07:09:25;6.60;99.90
42479;DHT22;28110;47.080;9.476;2023-02-19T07:11:52;6.60;99.90
42479;DHT22;28110;47.080;9.476;2023-02-19T07:14:18;6.50;99.90
42479;DHT22;28110;47.080;9.476;2023-02-19T07:16:45;6.60;99.90
42479;DHT22;28110;47.080;9.476;2023-02-19T07:19:12;6.60;99.90
42479;DHT22;28110;47.080;9.476;2023-02-19T07:21:39;6.70;99.90
42479;DHT22;28110;47.080;9.476;2023-02-19T07:24:07;6.80;99.90
42479;DHT22;28110;47.080;9.476;2023-02-19T07:26:33;6.80;99.90
42479;DHT22;28110;47.080;9.476;2023-02-19T07:29:00;6.80;99.90
42479;DHT22;28110;47.080;9.476;2023-02-19T07:31:26;6.90;99.90
42479;DHT22;28110;47.080;9.476;2023-02-19T07:33:53;6.90;99.90
42479;DHT22;28110;47.080;9.476;2023-02-19T07:36:20;6.90;99.90
42479;DHT22;28110;47.080;9.476;2023-02-19T07:38:45;6.90;99.90
42479;DHT22;28110;47.080;9.476;2023-02-19T07:41:11;6.90;99.90
42479;DHT22;28110;47.080;9.476;2023-02-19T07:43:37;6.90;99.90
42479;DHT22;28110;47.080;9.476;2023-02-19T07:46:05;6.90;99.90
42479;DHT22;28110;47.080;9.476;2023-02-19T07:48:30;7.00;99.90
42479;DHT22;28110;47.080;9.476;2023-02-19T07:50:59;6.90;99.90
42479;DHT22;28110;47.080;9.476;2023-02-19T07:53:26;7.00;99.90
42479;DHT22;28110;47.080;9.476;2023-02-19T07:55:53;7.00;99.90
42479;DHT22;28110;47.080;9.476;2023-02-19T07:58:19;7.00;99.90
42479;DHT22;28110;47.080;9.476;2023-02-19T08:00:44;7.00;99.90
42479;DHT22;28110;47.080;9.476;2023-02-19T08:03:10;7.00;99.90
42479;DHT22;28110;47.080;9.476;2023-02-19T08:05:37;7.00;99.90
42479;DHT22;28110;47.080;9.476;2023-02-19T08:08:07;7.00;99.90
42479;DHT22;28110;47.080;9.476;2023-02-19T08:10:33;6.90;99.90
42479;DHT22;28110;47.080;9.476;2023-02-19T08:13:17;7.00;99.90
42479;DHT22;28110;47.080;9.476;2023-02-19T08:16:08;6.90;99.90
42479;DHT22;28110;47.080;9.476;2023-02-19T08:18:34;6.90;99.90
42479;DHT22;28110;47.080;9.476;2023-02-19T08:21:00;7.00;99.90
42479;DHT22;28110;47.080;9.476;2023-02-19T08:23:26;7.00;99.90
42479;DHT22;28110;47.080;9.476;2023-02-19T08:25:53;7.10;99.90
42479;DHT22;28110;47.080;9.476;2023-02-19T08:28:20;7.10;99.90
42479;DHT22;28110;47.080;9.476;2023-02-19T08:30:47;7.20;99.90
42479;DHT22;28110;47.080;9.476;2023-02-19T08:33:17;7.20;99.90
42479;DHT22;28110;47.080;9.476;2023-02-19T08:35:43;7.20;99.90
42479;DHT22;28110;47.080;9.476;2023-02-19T08:38:11;7.30;99.90
42479;DHT22;28110;47.080;9.476;2023-02-19T08:40:37;7.30;99.90
42479;DHT22;28110;47.080;9.476;2023-02-19T08:43:12;7.30;99.90
42479;DHT22;28110;47.080;9.476;2023-02-19T08:45:39;7.40;99.90
42479;DHT22;28110;47.080;9.476;2023-02-19T08:48:06;7.40;99.90
42479;DHT22;28110;47.080;9.476;2023-02-19T08:50:32;7.40;99.90
42479;DHT22;28110;47.080;9.476;2023-02-19T08:52:59;7.50;99.90
42479;DHT22;28110;47.080;9.476;2023-02-19T08:55:25;7.50;99.90
42479;DHT22;28110;47.080;9.476;2023-02-19T08:57:50;7.40;99.90
42479;DHT22;28110;47.080;9.476;2023-02-19T09:00:16;7.40;99.90
42479;DHT22;28110;47.080;9.476;2023-02-19T09:02:43;7.40;99.90
42479;DHT22;28110;47.080;9.476;2023-02-19T09:05:10;7.50;99.90
42479;DHT22;28110;47.080;9.476;2023-02-19T09:07:36;7.50;99.90
42479;DHT22;28110;47.080;9.476;2023-02-19T09:10:02;7.50;99.90
42479;DHT22;28110;47.080;9.476;2023-02-19T09:12:28;7.50;99.90
42479;DHT22;28110;47.080;9.476;2023-02-19T09:14:53;7.70;99.90
42479;DHT22;28110;47.080;9.476;2023-02-19T09:17:19;7.70;99.90
42479;DHT22;28110;47.080;9.476;2023-02-19T09:19:45;7.70;99.90
42479;DHT22;28110;47.080;9.476;2023-02-19T09:22:10;7.70;99.90
42479;DHT22;28110;47.080;9.476;2023-02-19T09:24:36;7.70;99.90
42479;DHT22;28110;47.080;9.476;2023-02-19T09:27:02;7.80;99.90
42479;DHT22;28110;47.080;9.476;2023-02-19T09:29:28;7.90;99.90
42479;DHT22;28110;47.080;9.476;2023-02-19T09:31:57;8.00;99.90
42479;DHT22;28110;47.080;9.476;2023-02-19T09:34:24;8.10;99.90
42479;DHT22;28110;47.080;9.476;2023-02-19T09:36:50;8.20;99.90
42479;DHT22;28110;47.080;9.476;2023-02-19T09:39:16;8.40;99.90
42479;DHT22;28110;47.080;9.476;2023-02-19T09:41:47;8.50;99.90
42479;DHT22;28110;47.080;9.476;2023-02-19T09:44:20;8.50;99.90
42479;DHT22;28110;47.080;9.476;2023-02-19T09:46:49;8.60;99.90
42479;DHT22;28110;47.080;9.476;2023-02-19T09:54:32;8.70;99.90
42479;DHT22;28110;47.080;9.476;2023-02-19T09:57:01;8.70;99.90
42479;DHT22;28110;47.080;9.476;2023-02-19T09:59:42;8.80;99.90
42479;DHT22;28110;47.080;9.476;2023-02-19T10:02:16;8.90;99.90
42479;DHT22;28110;47.080;9.476;2023-02-19T10:04:44;9.00;99.90
42479;DHT22;28110;47.080;9.476;2023-02-19T10:07:36;9.10;99.90
42479;DHT22;28110;47.080;9.476;2023-02-19T10:12:40;9.50;99.90
42479;DHT22;28110;47.080;9.476;2023-02-19T10:17:35;9.80;99.90
42479;DHT22;28110;47.080;9.476;2023-02-19T10:20:02;9.90;99.90
42479;DHT22;28110;47.080;9.476;2023-02-19T10:22:32;9.90;99.90
42479;DHT22;28110;47.080;9.476;2023-02-19T10:25:00;10.00;99.90
42479;DHT22;28110;47.080;9.476;2023-02-19T10:27:28;10.00;99.90
42479;DHT22;28110;47.080;9.476;2023-02-19T10:29:55;10.00;99.90
42479;DHT22;28110;47.080;9.476;2023-02-19T10:32:24;10.10;99.90
42479;DHT22;28110;47.080;9.476;2023-02-19T10:37:44;10.20;99.90
42479;DHT22;28110;47.080;9.476;2023-02-19T10:40:22;10.20;99.90
42479;DHT22;28110;47.080;9.476;2023-02-19T10:43:02;10.30;99.90
42479;DHT22;28110;47.080;9.476;2023-02-19T10:47:58;10.50;99.90
42479;DHT22;28110;47.080;9.476;2023-02-19T10:50:29;10.50;99.90
42479;DHT22;28110;47.080;9.476;2023-02-19T10:52:56;10.50;99.90
42479;DHT22;28110;47.080;9.476;2023-02-19T10:55:32;10.60;99.90
42479;DHT22;28110;47.080;9.476;2023-02-19T10:58:20;10.70;99.90
42479;DHT22;28110;47.080;9.476;2023-02-19T11:00:46;10.80;99.90
42479;DHT22;28110;47.080;9.476;2023-02-19T11:03:20;10.80;99.90
42479;DHT22;28110;47.080;9.476;2023-02-19T11:06:06;10.90;99.90
42479;DHT22;28110;47.080;9.476;2023-02-19T11:08:54;11.00;99.90
42479;DHT22;28110;47.080;9.476;2023-02-19T11:13:56;11.00;99.90
42479;DHT22;28110;47.080;9.476;2023-02-19T11:16:37;11.10;99.90
42479;DHT22;28110;47.080;9.476;2023-02-19T11:19:03;11.30;99.90
42479;DHT22;28110;47.080;9.476;2023-02-19T11:21:29;11.40;99.90
42479;DHT22;28110;47.080;9.476;2023-02-19T11:23:59;11.50;99.90
42479;DHT22;28110;47.080;9.476;2023-02-19T11:26:32;11.50;99.90
42479;DHT22;28110;47.080;9.476;2023-02-19T11:29:18;11.60;99.90
42479;DHT22;28110;47.080;9.476;2023-02-19T11:31:46;11.70;99.90
42479;DHT22;28110;47.080;9.476;2023-02-19T11:36:46;11.80;99.90
42479;DHT22;28110;47.080;9.476;2023-02-19T11:39:21;11.90;99.90
42479;DHT22;28110;47.080;9.476;2023-02-19T11:41:56;11.90;99.90
42479;DHT22;28110;47.080;9.476;2023-02-19T11:49:53;12.10;99.90
42479;DHT22;28110;47.080;9.476;2023-02-19T11:52:44;12.10;99.90
42479;DHT22;28110;47.080;9.476;2023-02-19T12:01:28;12.10;99.90
42479;DHT22;28110;47.080;9.476;2023-02-19T12:04:01;12.20;99.90
42479;DHT22;28110;47.080;9.476;2023-02-19T12:09:56;12.20;99.90
42479;DHT22;28110;47.080;9.476;2023-02-19T12:15:16;12.20;99.90
42479;DHT22;28110;47.080;9.476;2023-02-19T12:21:01;12.40;99.90
42479;DHT22;28110;47.080;9.476;2023-02-19T12:26:44;12.60;99.90
42479;DHT22;28110;47.080;9.476;2023-02-19T12:32:20;12.90;99.90
42479;DHT22;28110;47.080;9.476;2023-02-19T12:35:21;12.90;99.90
42479;DHT22;28110;47.080;9.476;2023-02-19T12:43:36;13.00;99.90
42479;DHT22;28110;47.080;9.476;2023-02-19T12:46:13;13.10;99.90
42479;DHT22;28110;47.080;9.476;2023-02-19T12:51:27;13.20;99.90
42479;DHT22;28110;47.080;9.476;2023-02-19T12:54:04;13.20;99.90
42479;DHT22;28110;47.080;9.476;2023-02-19T12:57:03;13.30;99.90
42479;DHT22;28110;47.080;9.476;2023-02-19T13:02:43;13.30;99.90
42479;DHT22;28110;47.080;9.476;2023-02-19T13:07:55;13.30;99.90
42479;DHT22;28110;47.080;9.476;2023-02-19T13:10:30;13.30;99.90
42479;DHT22;28110;47.080;9.476;2023-02-19T13:13:03;13.20;99.90
42479;DHT22;28110;47.080;9.476;2023-02-19T13:15:35;13.20;99.90
42479;DHT22;28110;47.080;9.476;2023-02-19T13:18:04;13.20;99.90
42479;DHT22;28110;47.080;9.476;2023-02-19T13:20:40;13.20;99.90
42479;DHT22;28110;47.080;9.476;2023-02-19T13:23:20;13.20;99.90
42479;DHT22;28110;47.080;9.476;2023-02-19T13:29:04;13.20;99.90
42479;DHT22;28110;47.080;9.476;2023-02-19T13:37:39;13.10;99.90
42479;DHT22;28110;47.080;9.476;2023-02-19T13:40:18;13.10;99.90
42479;DHT22;28110;47.080;9.476;2023-02-19T13:42:53;13.10;99.90
42479;DHT22;28110;47.080;9.476;2023-02-19T13:45:27;13.10;99.90
42479;DHT22;28110;47.080;9.476;2023-02-19T13:50:26;13.10;99.90
42479;DHT22;28110;47.080;9.476;2023-02-19T13:52:54;13.20;99.90
42479;DHT22;28110;47.080;9.476;2023-02-19T13:55:55;13.20;99.90
42479;DHT22;28110;47.080;9.476;2023-02-19T14:01:06;13.10;99.90
42479;DHT22;28110;47.080;9.476;2023-02-19T14:03:53;13.10;99.90
42479;DHT22;28110;47.080;9.476;2023-02-19T14:06:19;13.00;99.90
42479;DHT22;28110;47.080;9.476;2023-02-19T14:08:55;13.00;99.90
42479;DHT22;28110;47.080;9.476;2023-02-19T14:14:33;12.80;99.90
42479;DHT22;28110;47.080;9.476;2023-02-19T14:27:47;12.40;99.90
42479;DHT22;28110;47.080;9.476;2023-02-19T14:30:13;12.30;99.90
42479;DHT22;28110;47.080;9.476;2023-02-19T14:32:40;12.30;99.90
42479;DHT22;28110;47.080;9.476;2023-02-19T14:35:15;12.30;99.90
42479;DHT22;28110;47.080;9.476;2023-02-19T14:37:44;12.30;99.90
42479;DHT22;28110;47.080;9.476;2023-02-19T14:40:17;12.30;99.90
42479;DHT22;28110;47.080;9.476;2023-02-19T14:42:46;12.30;99.90
42479;DHT22;28110;47.080;9.476;2023-02-19T14:45:14;12.20;99.90
42479;DHT22;28110;47.080;9.476;2023-02-19T14:47:40;12.20;99.90
42479;DHT22;28110;47.080;9.476;2023-02-19T14:50:24;12.20;99.90
42479;DHT22;28110;47.080;9.476;2023-02-19T14:52:53;12.20;99.90
42479;DHT22;28110;47.080;9.476;2023-02-19T14:55:36;12.20;99.90
42479;DHT22;28110;47.080;9.476;2023-02-19T14:58:11;12.10;99.90
42479;DHT22;28110;47.080;9.476;2023-02-19T15:00:40;12.10;99.90
42479;DHT22;28110;47.080;9.476;2023-02-19T15:03:20;12.00;99.90
42479;DHT22;28110;47.080;9.476;2023-02-19T15:05:54;12.00;99.90
42479;DHT22;28110;47.080;9.476;2023-02-19T15:08:30;11.90;99.90
42479;DHT22;28110;47.080;9.476;2023-02-19T15:10:55;11.90;99.90
42479;DHT22;28110;47.080;9.476;2023-02-19T15:13:25;11.90;99.90
42479;DHT22;28110;47.080;9.476;2023-02-19T15:15:52;11.80;99.90
42479;DHT22;28110;47.080;9.476;2023-02-19T15:18:21;11.80;99.90
42479;DHT22;28110;47.080;9.476;2023-02-19T15:20:48;11.80;99.90
42479;DHT22;28110;47.080;9.476;2023-02-19T15:23:21;11.80;99.90
42479;DHT22;28110;47.080;9.476;2023-02-19T15:25:48;11.60;99.90
42479;DHT22;28110;47.080;9.476;2023-02-19T15:28:19;11.60;99.90
42479;DHT22;28110;47.080;9.476;2023-02-19T15:30:44;11.50;99.90
42479;DHT22;28110;47.080;9.476;2023-02-19T15:33:16;11.50;99.90
42479;DHT22;28110;47.080;9.476;2023-02-19T15:35:47;11.50;99.90
42479;DHT22;28110;47.080;9.476;2023-02-19T15:38:13;11.50;99.90
42479;DHT22;28110;47.080;9.476;2023-02-19T15:40:43;11.50;99.90
42479;DHT22;28110;47.080;9.476;2023-02-19T15:43:37;11.40;99.90
42479;DHT22;28110;47.080;9.476;2023-02-19T15:46:15;11.40;99.90
42479;DHT22;28110;47.080;9.476;2023-02-19T15:49:00;11.30;99.90
42479;DHT22;28110;47.080;9.476;2023-02-19T15:51:46;11.30;99.90
42479;DHT22;28110;47.080;9.476;2023-02-19T15:56:46;11.30;99.90
42479;DHT22;28110;47.080;9.476;2023-02-19T16:01:47;11.20;99.90
42479;DHT22;28110;47.080;9.476;2023-02-19T16:04:14;11.20;99.90
42479;DHT22;28110;47.080;9.476;2023-02-19T16:07:19;11.10;99.90
42479;DHT22;28110;47.080;9.476;2023-02-19T16:09:45;11.00;99.90
42479;DHT22;28110;47.080;9.476;2023-02-19T16:12:22;10.90;99.90
42479;DHT22;28110;47.080;9.476;2023-02-19T16:14:48;10.90;99.90
42479;DHT22;28110;47.080;9.476;2023-02-19T16:17:17;10.90;99.90
42479;DHT22;28110;47.080;9.476;2023-02-19T16:19:47;10.80;99.90
42479;DHT22;28110;47.080;9.476;2023-02-19T16:22:20;10.80;99.90
42479;DHT22;28110;47.080;9.476;2023-02-19T16:24:51;10.70;99.90
42479;DHT22;28110;47.080;9.476;2023-02-19T16:27:34;10.70;99.90
42479;DHT22;28110;47.080;9.476;2023-02-19T16:32:40;10.70;99.90
42479;DHT22;28110;47.080;9.476;2023-02-19T16:35:35;10.60;99.90
42479;DHT22;28110;47.080;9.476;2023-02-19T16:38:01;10.70;99.90
42479;DHT22;28110;47.080;9.476;2023-02-19T16:45:43;10.50;99.90
42479;DHT22;28110;47.080;9.476;2023-02-19T16:48:09;10.40;99.90
42479;DHT22;28110;47.080;9.476;2023-02-19T16:50:35;10.40;99.90
42479;DHT22;28110;47.080;9.476;2023-02-19T16:53:06;10.40;99.90
42479;DHT22;28110;47.080;9.476;2023-02-19T16:55:31;10.40;99.90
42479;DHT22;28110;47.080;9.476;2023-02-19T16:57:59;10.30;99.90
42479;DHT22;28110;47.080;9.476;2023-02-19T17:00:27;10.30;99.90
42479;DHT22;28110;47.080;9.476;2023-02-19T17:02:58;10.30;99.90
42479;DHT22;28110;47.080;9.476;2023-02-19T17:05:28;10.30;99.90
42479;DHT22;28110;47.080;9.476;2023-02-19T17:07:55;10.30;99.90
42479;DHT22;28110;47.080;9.476;2023-02-19T17:10:25;10.30;99.90
42479;DHT22;28110;47.080;9.476;2023-02-19T17:12:52;10.20;99.90
42479;DHT22;28110;47.080;9.476;2023-02-19T17:15:18;10.10;99.90
42479;DHT22;28110;47.080;9.476;2023-02-19T17:17:44;10.10;99.90
42479;DHT22;28110;47.080;9.476;2023-02-19T17:22:42;9.90;99.90
42479;DHT22;28110;47.080;9.476;2023-02-19T17:25:08;9.80;99.90
42479;DHT22;28110;47.080;9.476;2023-02-19T17:27:33;9.80;99.90
42479;DHT22;28110;47.080;9.476;2023-02-19T17:29:59;9.70;99.90
42479;DHT22;28110;47.080;9.476;2023-02-19T17:32:25;9.70;99.90
42479;DHT22;28110;47.080;9.476;2023-02-19T17:34:50;9.60;99.90
42479;DHT22;28110;47.080;9.476;2023-02-19T17:37:16;9.60;99.90
42479;DHT22;28110;47.080;9.476;2023-02-19T17:39:42;9.50;99.90
42479;DHT22;28110;47.080;9.476;2023-02-19T17:42:07;9.50;99.90
42479;DHT22;28110;47.080;9.476;2023-02-19T17:44:33;9.50;99.90
42479;DHT22;28110;47.080;9.476;2023-02-19T17:47:00;9.40;99.90
42479;DHT22;28110;47.080;9.476;2023-02-19T17:49:25;9.30;99.90
42479;DHT22;28110;47.080;9.476;2023-02-19T17:51:51;9.30;99.90
42479;DHT22;28110;47.080;9.476;2023-02-19T17:54:16;9.20;99.90
42479;DHT22;28110;47.080;9.476;2023-02-19T17:56:42;9.10;99.90
42479;DHT22;28110;47.080;9.476;2023-02-19T17:59:11;9.00;99.90
42479;DHT22;28110;47.080;9.476;2023-02-19T18:01:37;9.00;99.90
42479;DHT22;28110;47.080;9.476;2023-02-19T18:04:03;9.00;99.90
42479;DHT22;28110;47.080;9.476;2023-02-19T18:06:28;9.00;99.90
42479;DHT22;28110;47.080;9.476;2023-02-19T18:08:54;9.00;99.90